Artemis — SWZE — position and weather

sailwx.info

Track history (hours):
 
Tides and Currents Weather Stations Pressure Air Temp Water Temp Dewpoint Dewpoint Depression Visibility Wind Speed Wind Dir Waves Ship Positions

Artemis

Last reported at 2016-Feb-08 05:27 UTC. Time now 2016-Feb-08 06:05 UTC.
Position N 37°30' E 024°56'.

Length 89 m; draft 3.4 m.

Type: Passenger vessel. MMSI: 237026300.

Date/timePositionNaut miles runAvg speedWind from/ knotsBaromVisibWave heightAir tempDewpointWater temp
2016-Feb-08 05:27N 37°30' E 024°56'4 0.6
2016-Feb-07 23:17N 37°26' E 024°56'0 0.0
2016-Feb-07 21:30N 37°26' E 024°56'0 0.5
2016-Feb-07 20:29N 37°26' E 024°57'1415.3
2016-Feb-07 19:34N 37°13' E 025°04'5 2.3
2016-Feb-07 17:33N 37°09' E 025°01'12 1.3
2016-Feb-07 08:08N 37°12' E 024°47'915.2
2016-Feb-07 07:33N 37°11' E 024°58'9 8.9
2016-Feb-07 06:33N 37°06' E 025°07'1515.4
2016-Feb-07 05:34N 37°21' E 025°00'7 5.6
2016-Feb-07 04:23N 37°26' E 024°56'0 0.0
2016-Feb-07 00:24N 37°26' E 024°56'0 0.5
2016-Feb-06 23:27N 37°26' E 024°57'1212.9
2016-Feb-06 22:33N 37°33' E 024°45'  
2016-Feb-04 16:04N 37°38' E 024°08'35 7.7
2016-Feb-04 11:34N 37°31' E 024°51'7 6.7
2016-Feb-04 10:33N 37°26' E 024°57'1111.3
2016-Feb-04 09:34N 37°18' E 024°48'3 0.1
2016-Feb-03 13:33N 37°17' E 024°51'1010.0
2016-Feb-03 12:33N 37°26' E 024°56'0 0.0
2016-Feb-03 11:33N 37°26' E 024°56'0 0.1
2016-Feb-03 10:33N 37°26' E 024°57'1111.2
2016-Feb-03 09:34N 37°32' E 025°08'1514.5
2016-Feb-03 08:33N 37°42' E 024°55'1 0.5
2016-Feb-03 06:33N 37°43' E 024°54'1616.0
2016-Feb-03 05:33N 37°32' E 025°09'1111.3
2016-Feb-03 04:33N 37°26' E 024°57'0 0.0
2016-Feb-03 03:33N 37°26' E 024°56'0 0.0
2016-Feb-03 02:33N 37°26' E 024°56'0 0.0
2016-Feb-03 01:33N 37°26' E 024°56'0 0.0
2016-Feb-03 00:33N 37°26' E 024°56'0 0.0
2016-Feb-02 23:33N 37°26' E 024°56'0 0.0
2016-Feb-02 22:33N 37°26' E 024°56'0 0.0
2016-Feb-02 21:33N 37°26' E 024°56'0 0.0
2016-Feb-02 20:33N 37°26' E 024°56'0 0.0
2016-Feb-02 19:33N 37°26' E 024°56'8 7.7
2016-Feb-02 18:34N 37°19' E 025°01'1615.5
2016-Feb-02 17:34N 37°05' E 025°08'1111.1
2016-Feb-02 16:33N 37°07' E 024°54'1 0.2
2016-Feb-02 07:32N 37°06' E 024°56'9 9.1
2016-Feb-02 06:33N 37°06' E 025°07'1515.5
2016-Feb-02 05:33N 37°21' E 025°00'7 6.6
2016-Feb-02 04:34N 37°26' E 024°56'0 0.0
2016-Feb-02 03:33N 37°26' E 024°56'0 0.0
2016-Feb-02 02:34N 37°26' E 024°56'0 0.0
2016-Feb-02 01:34N 37°26' E 024°56'0 0.0
2016-Feb-02 00:34N 37°26' E 024°56'0 0.0
2016-Feb-01 23:34N 37°26' E 024°56'0 0.0
2016-Feb-01 22:34N 37°26' E 024°56'0 0.0
2016-Feb-01 21:34N 37°26' E 024°56'0 0.0
2016-Feb-01 20:34N 37°26' E 024°56'8 8.1
2016-Feb-01 19:33N 37°31' E 024°48'5 0.4
2016-Feb-01 05:33N 37°31' E 024°55'5 4.5
2016-Feb-01 04:33N 37°26' E 024°56'0 0.0
2016-Feb-01 03:33N 37°26' E 024°56'0 0.0
2016-Feb-01 02:33N 37°26' E 024°56'0 0.0
2016-Feb-01 01:33N 37°26' E 024°56'0 0.0
2016-Feb-01 00:33N 37°26' E 024°56'0 0.0
2016-Jan-31 23:33N 37°26' E 024°56'9 9.0
2016-Jan-31 22:33N 37°18' E 025°01'1413.0
2016-Jan-31 21:28N 37°05' E 025°09'1614.9
2016-Jan-31 20:24N 37°07' E 024°49'11 1.3
2016-Jan-31 11:33N 37°06' E 025°03'6 5.6
2016-Jan-31 10:33N 37°11' E 025°05'1515.4
2016-Jan-31 09:33N 37°26' E 024°58'8 7.8
2016-Jan-31 08:33N 37°31' E 024°51'  
Track history (hours):
 
Tides and Currents Weather Stations Pressure Air Temp Water Temp Dewpoint Dewpoint Depression Visibility Wind Speed Wind Dir Waves Ship Positions

Artemis

Last reported at 2016-Feb-08 05:27 UTC. Time now 2016-Feb-08 06:05 UTC.
Position N 37°30' E 024°56'.

Length 89 m; draft 3.4 m.

Type: Passenger vessel. MMSI: 237026300.

Date/timePositionNaut miles runAvg speedWind from/ knotsBaromVisibWave heightAir tempDewpointWater temp
2016-Feb-08 05:27N 37°30' E 024°56'4 0.6
2016-Feb-07 23:17N 37°26' E 024°56'0 0.0
2016-Feb-07 21:30N 37°26' E 024°56'0 0.5
2016-Feb-07 20:29N 37°26' E 024°57'1415.3
2016-Feb-07 19:34N 37°13' E 025°04'5 2.3
2016-Feb-07 17:33N 37°09' E 025°01'12 1.3
2016-Feb-07 08:08N 37°12' E 024°47'915.2
2016-Feb-07 07:33N 37°11' E 024°58'9 8.9
2016-Feb-07 06:33N 37°06' E 025°07'1515.4
2016-Feb-07 05:34N 37°21' E 025°00'7 5.6
2016-Feb-07 04:23N 37°26' E 024°56'0 0.0
2016-Feb-07 00:24N 37°26' E 024°56'0 0.5
2016-Feb-06 23:27N 37°26' E 024°57'1212.9
2016-Feb-06 22:33N 37°33' E 024°45'  
2016-Feb-04 16:04N 37°38' E 024°08'35 7.7
2016-Feb-04 11:34N 37°31' E 024°51'7 6.7
2016-Feb-04 10:33N 37°26' E 024°57'1111.3
2016-Feb-04 09:34N 37°18' E 024°48'3 0.1
2016-Feb-03 13:33N 37°17' E 024°51'1010.0
2016-Feb-03 12:33N 37°26' E 024°56'0 0.0
2016-Feb-03 11:33N 37°26' E 024°56'0 0.1
2016-Feb-03 10:33N 37°26' E 024°57'1111.2
2016-Feb-03 09:34N 37°32' E 025°08'1514.5
2016-Feb-03 08:33N 37°42' E 024°55'1 0.5
2016-Feb-03 06:33N 37°43' E 024°54'1616.0
2016-Feb-03 05:33N 37°32' E 025°09'1111.3
2016-Feb-03 04:33N 37°26' E 024°57'0 0.0
2016-Feb-03 03:33N 37°26' E 024°56'0 0.0
2016-Feb-03 02:33N 37°26' E 024°56'0 0.0
2016-Feb-03 01:33N 37°26' E 024°56'0 0.0
2016-Feb-03 00:33N 37°26' E 024°56'0 0.0
2016-Feb-02 23:33N 37°26' E 024°56'0 0.0
2016-Feb-02 22:33N 37°26' E 024°56'0 0.0
2016-Feb-02 21:33N 37°26' E 024°56'0 0.0
2016-Feb-02 20:33N 37°26' E 024°56'0 0.0
2016-Feb-02 19:33N 37°26' E 024°56'8 7.7
2016-Feb-02 18:34N 37°19' E 025°01'1615.5
2016-Feb-02 17:34N 37°05' E 025°08'1111.1
2016-Feb-02 16:33N 37°07' E 024°54'1 0.2
2016-Feb-02 07:32N 37°06' E 024°56'9 9.1
2016-Feb-02 06:33N 37°06' E 025°07'1515.5
2016-Feb-02 05:33N 37°21' E 025°00'7 6.6
2016-Feb-02 04:34N 37°26' E 024°56'0 0.0
2016-Feb-02 03:33N 37°26' E 024°56'0 0.0
2016-Feb-02 02:34N 37°26' E 024°56'0 0.0
2016-Feb-02 01:34N 37°26' E 024°56'0 0.0
2016-Feb-02 00:34N 37°26' E 024°56'0 0.0
2016-Feb-01 23:34N 37°26' E 024°56'0 0.0
2016-Feb-01 22:34N 37°26' E 024°56'0 0.0
2016-Feb-01 21:34N 37°26' E 024°56'0 0.0
2016-Feb-01 20:34N 37°26' E 024°56'8 8.1
2016-Feb-01 19:33N 37°31' E 024°48'5 0.4
2016-Feb-01 05:33N 37°31' E 024°55'5 4.5
2016-Feb-01 04:33N 37°26' E 024°56'0 0.0
2016-Feb-01 03:33N 37°26' E 024°56'0 0.0
2016-Feb-01 02:33N 37°26' E 024°56'0 0.0
2016-Feb-01 01:33N 37°26' E 024°56'0 0.0
2016-Feb-01 00:33N 37°26' E 024°56'0 0.0
2016-Jan-31 23:33N 37°26' E 024°56'9 9.0
2016-Jan-31 22:33N 37°18' E 025°01'1413.0
2016-Jan-31 21:28N 37°05' E 025°09'1614.9
2016-Jan-31 20:24N 37°07' E 024°49'11 1.3
2016-Jan-31 11:33N 37°06' E 025°03'6 5.6
2016-Jan-31 10:33N 37°11' E 025°05'1515.4
2016-Jan-31 09:33N 37°26' E 024°58'8 7.8
2016-Jan-31 08:33N 37°31' E 024°51'  

Dump ship's entire track history